MDT4 SCNT-SCJO
Flight info
| Callsign | MDT4 |
|---|---|
| Flight time | N/A |
| Altitude | 40000 |
| Route | KOLPU3A KOLPU UQ802 CAUKE DCT VOVKI VOVKI2M |
| Aircraft | C750/M-SBDE3FGHJ3RWXYZ/SB1 |
Departure
| Time | 2026-04-30 13:58 |
|---|---|
| Airport | Lieutenant Julio Gallardo Airport (SCNT) |
Arrival
| Time | N/A |
|---|---|
| Airport | Cañal Bajo Carlos Hott Siebert Airport (SCJO) |
| Time | Latitude | Longitude | Altitude | Speed | Heading |
|---|---|---|---|---|---|
| 2026-04-30 13:44 | -51.66860 | -72.52973 | 219 ft | 0 kts | 312° |
| 2026-04-30 13:54 | -51.66850 | -72.52971 | 219 ft | 2 kts | 41° |
| 2026-04-30 13:55 | -51.66860 | -72.52952 | 219 ft | 4 kts | 154° |
| 2026-04-30 13:55 | -51.66910 | -72.52956 | 219 ft | 11 kts | 206° |
| 2026-04-30 13:55 | -51.66990 | -72.53028 | 219 ft | 13 kts | 202° |
| 2026-04-30 13:55 | -51.67040 | -72.52954 | 220 ft | 11 kts | 118° |
| 2026-04-30 13:56 | -51.67081 | -72.52837 | 220 ft | 13 kts | 120° |
| 2026-04-30 13:56 | -51.67130 | -72.52702 | 223 ft | 16 kts | 119° |
| 2026-04-30 13:56 | -51.67193 | -72.52523 | 223 ft | 21 kts | 118° |
| 2026-04-30 13:56 | -51.67270 | -72.52293 | 223 ft | 25 kts | 118° |
| 2026-04-30 13:57 | -51.67355 | -72.52056 | 223 ft | 24 kts | 122° |
| 2026-04-30 13:57 | -51.67422 | -72.51854 | 224 ft | 11 kts | 92° |
| 2026-04-30 13:57 | -51.67447 | -72.51773 | 225 ft | 8 kts | 194° |
| 2026-04-30 13:57 | -51.67436 | -72.51839 | 224 ft | 12 kts | 301° |
| 2026-04-30 13:58 | -51.67243 | -72.52384 | 224 ft | 106 kts | 300° |
| 2026-04-30 13:58 | -51.66327 | -72.54871 | 1188 ft | 138 kts | 301° |
| 2026-04-30 13:58 | -51.65793 | -72.56265 | 1727 ft | 153 kts | 298° |
| 2026-04-30 13:59 | -51.65275 | -72.57768 | 2485 ft | 153 kts | 297° |
| 2026-04-30 13:59 | -51.64758 | -72.59247 | 3246 ft | 155 kts | 296° |
| 2026-04-30 13:59 | -51.64224 | -72.60831 | 3770 ft | 172 kts | 294° |
| 2026-04-30 13:59 | -51.63595 | -72.62633 | 4264 ft | 199 kts | 297° |
| 2026-04-30 14:00 | -51.62878 | -72.64629 | 4975 ft | 214 kts | 296° |
| 2026-04-30 14:00 | -51.61247 | -72.69133 | 6123 ft | 256 kts | 297° |
| 2026-04-30 14:00 | -51.59939 | -72.71145 | 7050 ft | 271 kts | 323° |
| 2026-04-30 14:01 | -51.58110 | -72.72139 | 8004 ft | 285 kts | 347° |
| 2026-04-30 14:01 | -51.56155 | -72.72257 | 9353 ft | 282 kts | 353° |
| 2026-04-30 14:01 | -51.54125 | -72.72407 | 9912 ft | 299 kts | 352° |
| 2026-04-30 14:01 | -51.52036 | -72.72574 | 10676 ft | 309 kts | 353° |
| 2026-04-30 14:02 | -51.49803 | -72.72773 | 10898 ft | 335 kts | 353° |
| 2026-04-30 14:02 | -51.47390 | -72.72988 | 11138 ft | 356 kts | 353° |
| 2026-04-30 14:02 | -51.44939 | -72.73426 | 11936 ft | 353 kts | 342° |
| 2026-04-30 14:02 | -51.42758 | -72.75054 | 12672 ft | 350 kts | 326° |
| 2026-04-30 14:03 | -51.40681 | -72.77126 | 13424 ft | 355 kts | 324° |
| 2026-04-30 14:03 | -51.38584 | -72.79257 | 14090 ft | 359 kts | 324° |
| 2026-04-30 14:03 | -51.36456 | -72.81370 | 14763 ft | 362 kts | 326° |
| 2026-04-30 14:03 | -51.34297 | -72.83483 | 15433 ft | 365 kts | 326° |
| 2026-04-30 14:04 | -51.32132 | -72.85621 | 16117 ft | 367 kts | 326° |
| 2026-04-30 14:04 | -51.29950 | -72.87792 | 16817 ft | 370 kts | 326° |
| 2026-04-30 14:04 | -51.27753 | -72.89966 | 17534 ft | 373 kts | 326° |
| 2026-04-30 14:04 | -51.25534 | -72.92151 | 18192 ft | 376 kts | 326° |
| 2026-04-30 14:05 | -51.23311 | -72.94341 | 18916 ft | 376 kts | 325° |
| 2026-04-30 14:05 | -51.21107 | -72.96516 | 19596 ft | 378 kts | 325° |
| 2026-04-30 14:05 | -51.18988 | -72.98977 | 20202 ft | 378 kts | 318° |
| 2026-04-30 14:05 | -51.16956 | -73.01653 | 20917 ft | 379 kts | 317° |
| 2026-04-30 14:06 | -51.14900 | -73.04312 | 21611 ft | 382 kts | 318° |
| 2026-04-30 14:06 | -51.10730 | -73.09629 | 23003 ft | 386 kts | 318° |
| 2026-04-30 14:07 | -51.06520 | -73.15046 | 24131 ft | 392 kts | 318° |
| 2026-04-30 14:07 | -51.04416 | -73.17731 | 24673 ft | 394 kts | 318° |
| 2026-04-30 14:07 | -51.02272 | -73.20465 | 25232 ft | 397 kts | 318° |
| 2026-04-30 14:08 | -50.97929 | -73.26010 | 26329 ft | 404 kts | 318° |
| 2026-04-30 14:08 | -50.95731 | -73.28809 | 26811 ft | 409 kts | 318° |
| 2026-04-30 14:08 | -50.91229 | -73.34526 | 27805 ft | 418 kts | 318° |
| 2026-04-30 14:09 | -50.88946 | -73.37422 | 28333 ft | 422 kts | 318° |
| 2026-04-30 14:09 | -50.86671 | -73.40306 | 28841 ft | 426 kts | 318° |
| 2026-04-30 14:09 | -50.82009 | -73.46196 | 29901 ft | 432 kts | 318° |
| 2026-04-30 14:10 | -50.79652 | -73.49172 | 30304 ft | 436 kts | 318° |
| 2026-04-30 14:10 | -50.77271 | -73.52172 | 30780 ft | 438 kts | 318° |
| 2026-04-30 14:10 | -50.74892 | -73.55162 | 31409 ft | 436 kts | 318° |
| 2026-04-30 14:10 | -50.72515 | -73.58147 | 31954 ft | 437 kts | 318° |
| 2026-04-30 14:11 | -50.70138 | -73.61132 | 32516 ft | 437 kts | 318° |
| 2026-04-30 14:11 | -50.67756 | -73.64118 | 33078 ft | 437 kts | 318° |
| 2026-04-30 14:11 | -50.65376 | -73.67094 | 33635 ft | 438 kts | 318° |
| 2026-04-30 14:11 | -50.63022 | -73.70037 | 34144 ft | 437 kts | 317° |
| 2026-04-30 14:12 | -50.60641 | -73.73009 | 34636 ft | 437 kts | 317° |
| 2026-04-30 14:12 | -50.58254 | -73.75985 | 35096 ft | 438 kts | 317° |
| 2026-04-30 14:12 | -50.55866 | -73.78959 | 35573 ft | 439 kts | 318° |
| 2026-04-30 14:12 | -50.54277 | -73.80934 | 35884 ft | 439 kts | 318° |
| 2026-04-30 14:13 | -50.51070 | -73.84915 | 36478 ft | 440 kts | 318° |
| 2026-04-30 14:13 | -50.48665 | -73.87897 | 36967 ft | 441 kts | 318° |
| 2026-04-30 14:13 | -50.46255 | -73.90883 | 37466 ft | 441 kts | 318° |
| 2026-04-30 14:13 | -50.43840 | -73.93869 | 37959 ft | 442 kts | 318° |
| 2026-04-30 14:14 | -50.41371 | -73.96745 | 38401 ft | 445 kts | 323° |
| 2026-04-30 14:14 | -50.38625 | -73.99055 | 38780 ft | 451 kts | 332° |
| 2026-04-30 14:14 | -50.35694 | -74.00683 | 39195 ft | 456 kts | 340° |
| 2026-04-30 14:14 | -50.32561 | -74.01613 | 39568 ft | 463 kts | 348° |
| 2026-04-30 14:15 | -50.29286 | -74.01804 | 39581 ft | 479 kts | 358° |
| 2026-04-30 14:15 | -50.25921 | -74.01383 | 39596 ft | 491 kts | 1° |
| 2026-04-30 14:15 | -50.22484 | -74.00843 | 39575 ft | 501 kts | 1° |
| 2026-04-30 14:16 | -50.15411 | -73.99933 | 39595 ft | 519 kts | 360° |
| 2026-04-30 14:16 | -50.08171 | -73.98964 | 39591 ft | 528 kts | 1° |
| 2026-04-30 14:17 | -50.00850 | -73.97988 | 39591 ft | 529 kts | 0° |
| 2026-04-30 14:17 | -49.93517 | -73.97038 | 39586 ft | 529 kts | 1° |
| 2026-04-30 14:18 | -49.86183 | -73.96059 | 39586 ft | 529 kts | 0° |
| 2026-04-30 14:18 | -49.75205 | -73.94628 | 39554 ft | 526 kts | 0° |
| 2026-04-30 14:19 | -49.64290 | -73.93213 | 39595 ft | 527 kts | 0° |
| 2026-04-30 14:20 | -49.56980 | -73.92258 | 39598 ft | 527 kts | 0° |
| 2026-04-30 14:20 | -49.46006 | -73.90846 | 39582 ft | 529 kts | 0° |
| 2026-04-30 14:21 | -49.38667 | -73.89898 | 39588 ft | 529 kts | 0° |
| 2026-04-30 14:22 | -49.27719 | -73.88497 | 39580 ft | 529 kts | 0° |
| 2026-04-30 14:22 | -49.16721 | -73.87093 | 39575 ft | 529 kts | 0° |
| 2026-04-30 14:23 | -49.02079 | -73.85233 | 39590 ft | 528 kts | 0° |
| 2026-04-30 14:24 | -48.91092 | -73.83847 | 39590 ft | 528 kts | 0° |
| 2026-04-30 14:25 | -48.76497 | -73.82013 | 39590 ft | 528 kts | 360° |
| 2026-04-30 14:26 | -48.65514 | -73.80641 | 39590 ft | 528 kts | 360° |
| 2026-04-30 14:27 | -48.54542 | -73.79275 | 39590 ft | 528 kts | 360° |
| 2026-04-30 14:27 | -48.47270 | -73.78374 | 39596 ft | 527 kts | 360° |
| 2026-04-30 14:28 | -48.36314 | -73.77020 | 39567 ft | 526 kts | 360° |
| 2026-04-30 14:28 | -48.29001 | -73.76121 | 39605 ft | 528 kts | 360° |
| 2026-04-30 14:29 | -48.15615 | -73.74483 | 39596 ft | 527 kts | 360° |
| 2026-04-30 14:31 | -47.96152 | -73.72119 | 39597 ft | 527 kts | 359° |
| 2026-04-30 14:31 | -47.85200 | -73.70794 | 39590 ft | 526 kts | 359° |
| 2026-04-30 14:32 | -47.74256 | -73.69479 | 39594 ft | 526 kts | 359° |
| 2026-04-30 14:33 | -47.66957 | -73.68605 | 39594 ft | 526 kts | 359° |
| 2026-04-30 14:33 | -47.56069 | -73.67304 | 39586 ft | 526 kts | 359° |
| 2026-04-30 14:34 | -47.48772 | -73.66437 | 39589 ft | 526 kts | 359° |
| 2026-04-30 14:34 | -47.41489 | -73.65570 | 39587 ft | 525 kts | 359° |
| 2026-04-30 14:35 | -47.30548 | -73.64279 | 39594 ft | 526 kts | 359° |
| 2026-04-30 14:36 | -47.23250 | -73.63417 | 39589 ft | 526 kts | 359° |
| 2026-04-30 14:36 | -47.15956 | -73.62562 | 39585 ft | 526 kts | 359° |
| 2026-04-30 14:37 | -47.08654 | -73.61697 | 39590 ft | 526 kts | 359° |
| 2026-04-30 14:37 | -47.01357 | -73.60853 | 39595 ft | 526 kts | 359° |
| 2026-04-30 14:38 | -46.94077 | -73.60404 | 39600 ft | 523 kts | 355° |
| 2026-04-30 14:38 | -46.86794 | -73.60082 | 39603 ft | 524 kts | 356° |
| 2026-04-30 14:39 | -46.79515 | -73.59719 | 39604 ft | 522 kts | 355° |
| 2026-04-30 14:39 | -46.72263 | -73.59391 | 39606 ft | 522 kts | 355° |
| 2026-04-30 14:40 | -46.61413 | -73.58875 | 39589 ft | 524 kts | 356° |
| 2026-04-30 14:40 | -46.54141 | -73.58537 | 39614 ft | 522 kts | 355° |
| 2026-04-30 14:41 | -46.46888 | -73.58199 | 39614 ft | 521 kts | 355° |
| 2026-04-30 14:41 | -46.39634 | -73.57862 | 39594 ft | 522 kts | 355° |
| 2026-04-30 14:42 | -46.32393 | -73.57527 | 39621 ft | 521 kts | 355° |
| 2026-04-30 14:42 | -46.25203 | -73.57195 | 39619 ft | 520 kts | 355° |
| 2026-04-30 14:43 | -46.17958 | -73.56860 | 39603 ft | 521 kts | 355° |
| 2026-04-30 14:43 | -46.10716 | -73.56530 | 39624 ft | 521 kts | 355° |
| 2026-04-30 14:44 | -46.03461 | -73.56194 | 39633 ft | 521 kts | 355° |
| 2026-04-30 14:44 | -45.96225 | -73.55864 | 39624 ft | 520 kts | 355° |
| 2026-04-30 14:45 | -45.88984 | -73.55536 | 39631 ft | 521 kts | 355° |
| 2026-04-30 14:45 | -45.81746 | -73.55203 | 39638 ft | 520 kts | 355° |
| 2026-04-30 14:46 | -45.74509 | -73.54878 | 39642 ft | 519 kts | 355° |
| 2026-04-30 14:46 | -45.68506 | -73.54604 | 39638 ft | 519 kts | 355° |
| 2026-04-30 14:47 | -45.60112 | -73.54227 | 39649 ft | 519 kts | 355° |
| 2026-04-30 14:47 | -45.52888 | -73.53902 | 39655 ft | 519 kts | 355° |
| 2026-04-30 14:48 | -45.45660 | -73.53576 | 39655 ft | 519 kts | 355° |
| 2026-04-30 14:48 | -45.38442 | -73.53254 | 39658 ft | 519 kts | 355° |
| 2026-04-30 14:49 | -45.31271 | -73.52932 | 39669 ft | 519 kts | 354° |
| 2026-04-30 14:49 | -45.24047 | -73.52613 | 39670 ft | 519 kts | 354° |
| 2026-04-30 14:50 | -45.13196 | -73.51926 | 39683 ft | 523 kts | 358° |
| 2026-04-30 14:51 | -45.02369 | -73.50546 | 39699 ft | 523 kts | 357° |
| 2026-04-30 14:52 | -44.91504 | -73.49183 | 39704 ft | 522 kts | 358° |
| 2026-04-30 14:52 | -44.80647 | -73.47839 | 39712 ft | 522 kts | 358° |
| 2026-04-30 14:53 | -44.69844 | -73.46495 | 39719 ft | 521 kts | 357° |
| 2026-04-30 14:54 | -44.55385 | -73.44707 | 39724 ft | 521 kts | 357° |
| 2026-04-30 14:55 | -44.44558 | -73.43376 | 39751 ft | 521 kts | 357° |
| 2026-04-30 14:56 | -44.30182 | -73.41612 | 39754 ft | 519 kts | 357° |
| 2026-04-30 14:57 | -44.19375 | -73.40296 | 39771 ft | 522 kts | 357° |
| 2026-04-30 14:58 | -44.04979 | -73.38547 | 39774 ft | 520 kts | 356° |
| 2026-04-30 14:58 | -43.94167 | -73.37236 | 39787 ft | 519 kts | 356° |
| 2026-04-30 15:00 | -43.76179 | -73.35072 | 39800 ft | 519 kts | 356° |
| 2026-04-30 15:01 | -43.61839 | -73.33356 | 39805 ft | 519 kts | 356° |
| 2026-04-30 15:01 | -43.51056 | -73.32071 | 39816 ft | 519 kts | 356° |
| 2026-04-30 15:02 | -43.43862 | -73.31215 | 39824 ft | 518 kts | 356° |
| 2026-04-30 15:03 | -43.27121 | -73.29234 | 39830 ft | 519 kts | 356° |
| 2026-04-30 15:04 | -43.08008 | -73.27052 | 39844 ft | 516 kts | 355° |
| 2026-04-30 15:06 | -42.91303 | -73.25295 | 39853 ft | 515 kts | 355° |
| 2026-04-30 15:07 | -42.77004 | -73.23789 | 39857 ft | 514 kts | 355° |
| 2026-04-30 15:07 | -42.69887 | -73.23042 | 39678 ft | 506 kts | 355° |
| 2026-04-30 15:08 | -42.63137 | -73.22317 | 38339 ft | 474 kts | 353° |
| 2026-04-30 15:08 | -42.53746 | -73.21352 | 36557 ft | 437 kts | 352° |
| 2026-04-30 15:09 | -42.47635 | -73.20736 | 35409 ft | 445 kts | 352° |
| 2026-04-30 15:09 | -42.41440 | -73.20049 | 34232 ft | 449 kts | 353° |
| 2026-04-30 15:10 | -42.35278 | -73.19232 | 33031 ft | 448 kts | 353° |
| 2026-04-30 15:11 | -42.22752 | -73.17584 | 30651 ft | 455 kts | 353° |
| 2026-04-30 15:11 | -42.16473 | -73.16754 | 29404 ft | 448 kts | 353° |
| 2026-04-30 15:12 | -42.07315 | -73.15560 | 27674 ft | 438 kts | 353° |
| 2026-04-30 15:13 | -42.01301 | -73.14767 | 26529 ft | 431 kts | 353° |
| 2026-04-30 15:14 | -41.89536 | -73.13236 | 24291 ft | 419 kts | 354° |
| 2026-04-30 15:14 | -41.80944 | -73.12120 | 22610 ft | 409 kts | 354° |
| 2026-04-30 15:16 | -41.67006 | -73.10314 | 19986 ft | 396 kts | 355° |
| 2026-04-30 15:17 | -41.56230 | -73.08925 | 17907 ft | 385 kts | 356° |
| 2026-04-30 15:18 | -41.43177 | -73.07247 | 15419 ft | 370 kts | 357° |
| 2026-04-30 15:19 | -41.35625 | -73.06280 | 13979 ft | 361 kts | 358° |